Time;durP1;ratioP1;P1;durP2;ratioP2;P2;SDS_P1;SDS_P2;PMS_P1;PMS_P2;Temp;Humidity;BMP_temperature;BMP_pressure;BME280_temperature;BME280_humidity;BME280_pressure;Samples;Min_cycle;Max_cycle;Signal;HPM_P1;HPM_P2
2022/09/26 00:01:05;;;;;;;;;;;;;;;26.55;32.49;100655.53;5011865;28;1167;-37
2022/09/26 00:03:31;;;;;;;;;;;;;;;26.60;32.26;100650.44;5016873;28;1965;-37
2022/09/26 00:06:02;;;;;;;;;;;;;;;26.63;32.01;100656.31;5017204;28;1227;-37
2022/09/26 00:08:28;;;;;;;;;;;;;;;26.58;32.18;100644.38;4998014;28;1144;-36
2022/09/26 00:10:54;;;;;;;;;;;;;;;26.60;32.09;100645.91;5009547;28;1136;-36
2022/09/26 00:13:19;;;;;;;;;;;;;;;26.61;32.22;100641.34;5017012;28;1226;-37
2022/09/26 00:15:46;;;;;;;;;;;;;;;26.61;32.06;100638.66;5016960;28;870;-36
2022/09/26 00:18:11;;;;;;;;;;;;;;;26.65;31.98;100640.78;5016811;28;1424;-36
2022/09/26 00:20:36;;;;;;;;;;;;;;;26.68;31.79;100642.28;5017036;28;1200;-37
2022/09/26 00:23:02;;;;;;;;;;;;;;;26.70;32.14;100639.41;5016738;28;1902;-37
2022/09/26 00:25:27;;;;;;;;;;;;;;;26.60;31.93;100635.09;5016891;28;1206;-37
2022/09/26 00:27:52;;;;;;;;;;;;;;;26.63;32.39;100629.34;5016272;28;1054;-37
2022/09/26 00:30:17;;;;;;;;;;;;;;;26.56;32.39;100628.38;5016475;28;1175;-37
2022/09/26 00:32:43;;;;;;;;;;;;;;;26.62;31.79;100630.38;5017180;28;1140;-36
2022/09/26 00:35:08;;;;;;;;;;;;;;;26.65;31.96;100629.16;5016955;28;1151;-37
2022/09/26 00:37:33;;;;;;;;;;;;;;;26.37;32.59;100624.34;5017001;28;1190;-37
2022/09/26 00:39:59;;;;;;;;;;;;;;;26.11;33.22;100622.84;5016385;28;872;-37
2022/09/26 00:42:24;;;;;;;;;;;;;;;26.09;32.76;100628.38;5015811;28;1910;-35
2022/09/26 00:44:53;;;;;;;;;;;;;;;25.99;33.06;100630.47;5017307;28;1168;-35
2022/09/26 00:47:24;;;;;;;;;;;;;;;26.16;33.86;100629.34;4997441;28;1141;-36
2022/09/26 00:49:50;;;;;;;;;;;;;;;26.02;33.70;100625.59;5007635;28;1206;-36
2022/09/26 00:52:41;;;;;;;;;;;;;;;26.01;33.63;100629.28;5016257;28;933;-36
2022/09/26 00:55:07;;;;;;;;;;;;;;;26.00;33.78;100637.53;5002633;28;1788;-36
2022/09/26 00:57:34;;;;;;;;;;;;;;;26.11;33.97;100630.91;5001426;28;1205;-37
2022/09/26 01:00:03;;;;;;;;;;;;;;;26.07;33.80;100619.66;5016596;28;1464;-37
2022/09/26 01:02:28;;;;;;;;;;;;;;;26.00;34.13;100618.69;5015180;28;1902;-37
2022/09/26 01:04:53;;;;;;;;;;;;;;;26.33;33.20;100621.16;5016474;28;910;-37
2022/09/26 01:07:19;;;;;;;;;;;;;;;26.40;33.20;100618.59;5010735;28;1286;-37
2022/09/26 01:09:46;;;;;;;;;;;;;;;26.44;32.70;100624.47;5000405;28;1267;-36
2022/09/26 01:12:11;;;;;;;;;;;;;;;26.56;32.81;100614.91;4995456;28;1306;-36
2022/09/26 01:14:36;;;;;;;;;;;;;;;26.55;32.50;100613.22;4996647;28;1283;-36
2022/09/26 01:17:02;;;;;;;;;;;;;;;26.51;32.85;100615.44;5015661;28;1037;-36
2022/09/26 01:19:36;;;;;;;;;;;;;;;26.49;32.67;100609.38;5016266;28;1290;-36
2022/09/26 01:22:17;;;;;;;;;;;;;;;26.54;32.70;100611.56;5015458;28;1971;-36
2022/09/26 01:25:01;;;;;;;;;;;;;;;26.47;32.39;100607.91;5015597;28;1141;-36
2022/09/26 01:27:37;;;;;;;;;;;;;;;26.56;32.45;100608.69;5015676;28;1180;-36
2022/09/26 01:30:07;;;;;;;;;;;;;;;26.51;32.85;100601.09;5013660;28;1299;-35
2022/09/26 01:33:06;;;;;;;;;;;;;;;26.50;32.19;100600.28;5016226;28;1143;-34
2022/09/26 01:36:09;;;;;;;;;;;;;;;26.42;32.32;100600.38;4965547;28;1222;-35
2022/09/26 01:38:54;;;;;;;;;;;;;;;26.53;32.53;100608.03;4936881;29;1343;-37
2022/09/26 01:41:35;;;;;;;;;;;;;;;26.41;32.09;100595.97;4936363;29;1111;-36
2022/09/26 01:44:19;;;;;;;;;;;;;;;26.48;32.22;100598.78;4972960;28;1993;-37
2022/09/26 01:46:45;;;;;;;;;;;;;;;26.39;32.24;100608.81;5016118;28;1132;-37
2022/09/26 01:49:28;;;;;;;;;;;;;;;26.39;32.16;100603.44;5016040;28;1183;-36
2022/09/26 01:51:54;;;;;;;;;;;;;;;26.40;32.72;100605.09;5013340;28;1541;-36
2022/09/26 01:54:21;;;;;;;;;;;;;;;26.34;32.95;100600.44;5007466;28;1139;-36
2022/09/26 01:56:47;;;;;;;;;;;;;;;26.42;32.81;100603.06;5011070;28;1220;-36
2022/09/26 01:59:20;;;;;;;;;;;;;;;26.57;32.73;100599.56;5002289;28;1121;-36
2022/09/26 02:01:45;;;;;;;;;;;;;;;26.45;32.91;100597.31;5015392;28;1244;-35
2022/09/26 02:04:15;;;;;;;;;;;;;;;26.45;32.55;100594.59;5017535;28;1906;-36
2022/09/26 02:06:47;;;;;;;;;;;;;;;26.47;32.51;100589.03;5002714;28;1005;-36
2022/09/26 02:09:13;;;;;;;;;;;;;;;26.48;32.69;100602.31;5009994;28;1164;-36
2022/09/26 02:11:39;;;;;;;;;;;;;;;26.46;32.33;100595.44;5005373;28;1109;-36
2022/09/26 02:14:24;;;;;;;;;;;;;;;26.37;32.48;100600.91;5011477;28;1203;-36
2022/09/26 02:16:50;;;;;;;;;;;;;;;26.44;32.14;100592.94;5014297;28;1234;-36
2022/09/26 02:19:18;;;;;;;;;;;;;;;26.39;32.10;100589.94;5011339;28;1124;-36
2022/09/26 02:21:44;;;;;;;;;;;;;;;26.40;32.16;100595.16;5013323;28;1128;-36
2022/09/26 02:24:09;;;;;;;;;;;;;;;26.32;32.19;100592.50;5019147;28;1898;-36
2022/09/26 02:26:34;;;;;;;;;;;;;;;26.35;31.83;100596.72;5019423;28;1139;-36
2022/09/26 02:29:00;;;;;;;;;;;;;;;26.37;31.93;100592.81;5018541;28;1253;-36
2022/09/26 02:31:26;;;;;;;;;;;;;;;26.46;31.54;100587.38;5019205;28;1218;-36
2022/09/26 02:33:51;;;;;;;;;;;;;;;26.38;31.81;100580.16;5010333;28;1291;-36
2022/09/26 02:36:17;;;;;;;;;;;;;;;26.53;31.73;100580.19;5002009;28;1137;-37
2022/09/26 02:38:42;;;;;;;;;;;;;;;26.47;31.72;100580.94;5011685;28;1105;-36
2022/09/26 02:41:21;;;;;;;;;;;;;;;26.51;31.24;100576.84;5018630;28;1211;-37
2022/09/26 02:44:01;;;;;;;;;;;;;;;26.53;31.36;100585.59;5004182;28;1930;-37
2022/09/26 02:46:39;;;;;;;;;;;;;;;26.44;31.24;100575.91;5010362;28;1191;-36
2022/09/26 02:49:17;;;;;;;;;;;;;;;26.46;31.26;100584.66;5000785;28;1557;-35
2022/09/26 02:51:56;;;;;;;;;;;;;;;26.38;30.84;100578.31;5012321;28;1199;-35
2022/09/26 02:54:21;;;;;;;;;;;;;;;26.44;31.01;100589.41;5018391;28;1148;-35
2022/09/26 02:56:51;;;;;;;;;;;;;;;26.45;31.10;100589.22;5015222;28;1139;-35
2022/09/26 02:59:23;;;;;;;;;;;;;;;26.43;31.05;100585.00;5007942;28;1200;-36
2022/09/26 03:01:52;;;;;;;;;;;;;;;26.43;30.95;100575.06;5017120;28;1227;-36
2022/09/26 03:04:21;;;;;;;;;;;;;;;26.14;30.31;100576.63;5017627;28;1961;-35
2022/09/26 03:06:47;;;;;;;;;;;;;;;25.60;30.70;100572.91;5017410;28;1211;-35
2022/09/26 03:09:13;;;;;;;;;;;;;;;25.19;30.55;100572.13;5010385;28;1199;-37
2022/09/26 03:11:38;;;;;;;;;;;;;;;24.86;29.96;100566.81;5010463;28;1105;-35
2022/09/26 03:14:04;;;;;;;;;;;;;;;24.52;29.92;100566.00;4998109;28;1231;-34
2022/09/26 03:16:32;;;;;;;;;;;;;;;24.45;29.53;100555.09;5007579;28;1160;-35
2022/09/26 03:18:59;;;;;;;;;;;;;;;24.55;30.02;100553.06;5017285;28;1148;-36
2022/09/26 03:21:25;;;;;;;;;;;;;;;24.16;29.87;100556.41;5007874;28;1164;-35
2022/09/26 03:23:51;;;;;;;;;;;;;;;24.18;30.35;100549.06;5016239;28;1914;-34
2022/09/26 03:26:17;;;;;;;;;;;;;;;23.63;31.05;100552.16;5009631;28;1151;-35
2022/09/26 03:28:43;;;;;;;;;;;;;;;23.60;31.25;100544.44;5010842;28;1241;-33
2022/09/26 03:31:08;;;;;;;;;;;;;;;23.75;31.54;100544.63;5016168;28;1218;-33
2022/09/26 03:33:34;;;;;;;;;;;;;;;23.78;30.87;100551.50;5017248;28;1163;-35
2022/09/26 03:36:03;;;;;;;;;;;;;;;23.93;29.87;100540.94;5017124;28;997;-36
2022/09/26 03:38:28;;;;;;;;;;;;;;;23.88;29.66;100549.50;5016850;28;1119;-35
2022/09/26 03:40:55;;;;;;;;;;;;;;;23.96;29.20;100549.53;5017747;28;1210;-36
2022/09/26 03:43:23;;;;;;;;;;;;;;;24.00;29.36;100535.75;5017599;28;1973;-36
2022/09/26 03:45:49;;;;;;;;;;;;;;;23.81;29.44;100543.97;5017499;28;1136;-36
2022/09/26 03:48:15;;;;;;;;;;;;;;;23.79;29.30;100540.59;5017993;28;1198;-36
2022/09/26 03:50:40;;;;;;;;;;;;;;;23.77;29.35;100536.41;5017618;28;1171;-35
2022/09/26 03:53:06;;;;;;;;;;;;;;;23.90;29.63;100531.38;5017755;28;1080;-36
2022/09/26 03:55:31;;;;;;;;;;;;;;;23.67;30.32;100544.63;5017514;28;1167;-38
2022/09/26 03:57:58;;;;;;;;;;;;;;;24.28;29.62;100533.59;5017413;28;1069;-35
2022/09/26 04:00:23;;;;;;;;;;;;;;;24.60;29.03;100540.94;5006527;28;2647;-35
2022/09/26 04:02:49;;;;;;;;;;;;;;;25.08;28.63;100532.94;5012969;28;2125;-37
2022/09/26 04:05:14;;;;;;;;;;;;;;;25.06;29.10;100526.88;5016857;28;2110;-35
2022/09/26 04:07:39;;;;;;;;;;;;;;;25.31;29.20;100537.53;5016913;28;2312;-36
2022/09/26 04:10:05;;;;;;;;;;;;;;;25.25;29.50;100532.88;5017193;28;1903;-37
2022/09/26 04:12:31;;;;;;;;;;;;;;;25.46;29.92;100534.94;5016968;28;1810;-38
2022/09/26 04:14:56;;;;;;;;;;;;;;;25.27;30.48;100529.00;5016555;28;2077;-40
2022/09/26 04:17:22;;;;;;;;;;;;;;;25.08;31.21;100524.88;5016986;28;849;-38
2022/09/26 04:19:47;;;;;;;;;;;;;;;25.01;31.57;100526.56;5016645;28;1116;-36
2022/09/26 04:22:12;;;;;;;;;;;;;;;25.15;31.25;100528.53;5016420;28;1953;-39
2022/09/26 04:24:38;;;;;;;;;;;;;;;25.14;31.60;100534.09;5017231;28;1155;-37
2022/09/26 04:27:03;;;;;;;;;;;;;;;25.36;31.32;100523.56;5016815;28;1246;-38
2022/09/26 04:29:29;;;;;;;;;;;;;;;25.49;31.45;100531.88;5016519;28;1074;-38
2022/09/26 04:31:54;;;;;;;;;;;;;;;25.47;31.36;100528.56;5016743;28;1187;-37
2022/09/26 04:34:23;;;;;;;;;;;;;;;25.65;31.59;100536.38;5016849;28;1144;-39
2022/09/26 04:36:50;;;;;;;;;;;;;;;25.79;31.25;100542.03;5016282;28;1175;-36
2022/09/26 04:39:15;;;;;;;;;;;;;;;25.60;31.69;100535.19;5016863;28;1112;-36
2022/09/26 04:41:40;;;;;;;;;;;;;;;25.67;31.79;100541.59;5016213;28;1147;-39
2022/09/26 04:44:06;;;;;;;;;;;;;;;25.53;31.94;100543.16;5015965;28;1914;-39
2022/09/26 04:46:31;;;;;;;;;;;;;;;25.50;32.13;100538.97;5009601;28;2538;-37
2022/09/26 04:48:57;;;;;;;;;;;;;;;25.50;32.33;100533.59;5016274;28;1151;-37
2022/09/26 04:51:23;;;;;;;;;;;;;;;25.60;31.71;100525.28;5016502;28;1148;-39
2022/09/26 04:53:49;;;;;;;;;;;;;;;25.91;31.63;100537.03;5016308;28;918;-38
2022/09/26 04:56:14;;;;;;;;;;;;;;;25.90;31.76;100533.53;5016320;28;1238;-38
2022/09/26 04:58:43;;;;;;;;;;;;;;;25.95;31.74;100535.66;5015795;28;1108;-37
2022/09/26 05:01:09;;;;;;;;;;;;;;;25.91;32.03;100534.34;5004870;28;1128;-37
2022/09/26 05:03:37;;;;;;;;;;;;;;;26.14;32.13;100538.91;5010831;28;1902;-38
2022/09/26 05:06:07;;;;;;;;;;;;;;;26.02;32.21;100535.78;5015738;28;1274;-37
2022/09/26 05:08:36;;;;;;;;;;;;;;;25.78;31.97;100533.09;5003345;28;1041;-36
2022/09/26 05:11:01;;;;;;;;;;;;;;;25.92;32.40;100527.94;5016675;28;1128;-35
2022/09/26 05:13:27;;;;;;;;;;;;;;;26.14;32.24;100526.22;5008746;28;1119;-35
2022/09/26 05:15:54;;;;;;;;;;;;;;;26.06;32.28;100510.13;5008641;28;1790;-38
2022/09/26 05:18:20;;;;;;;;;;;;;;;26.18;31.73;100513.22;5016202;28;1006;-36
2022/09/26 05:20:46;;;;;;;;;;;;;;;26.14;32.00;100510.06;5016253;28;1108;-37
2022/09/26 05:23:12;;;;;;;;;;;;;;;26.20;32.62;100511.19;5016238;28;1902;-37
2022/09/26 05:28:22;;;;;;;;;;;;;;;26.01;32.32;100523.31;5016384;28;1107;-37
2022/09/26 05:30:50;;;;;;;;;;;;;;;26.06;32.24;100523.59;5008781;28;1040;-36
2022/09/26 05:33:15;;;;;;;;;;;;;;;26.12;31.90;100525.59;5005486;28;1338;-36
2022/09/26 05:35:40;;;;;;;;;;;;;;;26.08;32.00;100521.56;5019917;28;1187;-36
2022/09/26 05:38:06;;;;;;;;;;;;;;;26.06;32.12;100526.31;5019865;28;1155;-37
2022/09/26 05:43:15;;;;;;;;;;;;;;;26.37;32.43;100521.88;5017195;28;1902;-37
2022/09/26 05:45:40;;;;;;;;;;;;;;;26.10;32.54;100526.78;5010230;28;2195;-37
2022/09/26 05:48:06;;;;;;;;;;;;;;;26.06;32.48;100537.09;5015383;28;1097;-37
2022/09/26 05:50:31;;;;;;;;;;;;;;;26.04;32.66;100531.88;5019681;28;1211;-39
2022/09/26 05:52:57;;;;;;;;;;;;;;;26.12;32.56;100530.16;5019729;28;1101;-37
2022/09/26 05:55:23;;;;;;;;;;;;;;;26.32;32.16;100526.94;5019749;28;1127;-41
2022/09/26 05:57:57;;;;;;;;;;;;;;;26.20;32.47;100531.91;5010948;28;1088;-35
2022/09/26 06:00:22;;;;;;;;;;;;;;;26.35;32.51;100532.84;5003765;28;1278;-37
2022/09/26 06:02:57;;;;;;;;;;;;;;;26.37;32.07;100530.81;5019369;28;1959;-38
2022/09/26 06:05:25;;;;;;;;;;;;;;;26.48;32.20;100528.66;5019162;28;1174;-38
2022/09/26 06:07:51;;;;;;;;;;;;;;;26.35;32.39;100534.69;5019114;28;1178;-37
2022/09/26 06:10:17;;;;;;;;;;;;;;;26.31;32.37;100528.78;5019183;28;1132;-37
2022/09/26 06:12:42;;;;;;;;;;;;;;;26.28;32.32;100532.69;5018972;28;1120;-38
2022/09/26 06:15:10;;;;;;;;;;;;;;;26.29;32.74;100531.66;5011316;28;1823;-37
2022/09/26 06:17:36;;;;;;;;;;;;;;;26.31;32.23;100527.97;5018901;28;1077;-39
2022/09/26 06:20:01;;;;;;;;;;;;;;;26.36;32.25;100520.19;5007942;28;1151;-38
2022/09/26 06:22:27;;;;;;;;;;;;;;;26.39;32.18;100522.53;5006503;28;1906;-37
2022/09/26 06:24:53;;;;;;;;;;;;;;;26.58;32.30;100528.38;4999509;28;1411;-38
2022/09/26 06:27:19;;;;;;;;;;;;;;;26.59;31.94;100528.19;5015350;28;1128;-37
2022/09/26 06:29:44;;;;;;;;;;;;;;;26.65;32.44;100534.72;5018377;28;1189;-39
2022/09/26 06:32:09;;;;;;;;;;;;;;;26.55;32.37;100524.22;5018514;28;1179;-38
2022/09/26 06:34:35;;;;;;;;;;;;;;;26.50;32.45;100527.47;5019081;28;1116;-38
2022/09/26 06:37:00;;;;;;;;;;;;;;;26.49;32.27;100523.06;5019071;28;1072;-36
2022/09/26 06:39:34;;;;;;;;;;;;;;;26.53;32.31;100520.84;5018887;28;1139;-37
2022/09/26 06:42:03;;;;;;;;;;;;;;;26.51;32.32;100523.72;5018254;28;1120;-36
2022/09/26 06:44:28;;;;;;;;;;;;;;;26.46;32.33;100517.22;5018599;28;2014;-36
2022/09/26 06:46:54;;;;;;;;;;;;;;;26.44;32.49;100517.41;5018740;28;1571;-37
2022/09/26 06:49:19;;;;;;;;;;;;;;;26.46;32.82;100515.34;5012941;28;1100;-38
2022/09/26 06:51:50;;;;;;;;;;;;;;;26.85;32.17;100516.13;5011690;28;1096;-39
2022/09/26 06:54:15;;;;;;;;;;;;;;;27.10;32.35;100502.34;5011422;28;1136;-41
2022/09/26 06:56:40;;;;;;;;;;;;;;;26.75;32.13;100499.38;5016364;28;1266;-38
2022/09/26 06:59:06;;;;;;;;;;;;;;;26.64;32.33;100509.59;4998919;28;1349;-38
2022/09/26 07:01:31;;;;;;;;;;;;;;;26.84;32.04;100514.44;5014296;28;1215;-39
2022/09/26 07:03:57;;;;;;;;;;;;;;;26.72;32.43;100516.78;5018416;28;1961;-38
2022/09/26 07:06:23;;;;;;;;;;;;;;;26.87;32.30;100510.53;5017934;28;1160;-39
2022/09/26 07:08:49;;;;;;;;;;;;;;;26.99;32.15;100508.19;5018228;28;1160;-38
2022/09/26 07:11:15;;;;;;;;;;;;;;;26.83;31.91;100507.38;5018143;28;1191;-39
2022/09/26 07:13:40;;;;;;;;;;;;;;;26.98;31.97;100499.25;5017391;28;1191;-38
2022/09/26 07:16:06;;;;;;;;;;;;;;;26.92;31.98;100508.13;5018128;28;2082;-37
2022/09/26 07:18:31;;;;;;;;;;;;;;;26.80;32.39;100506.91;5017531;28;1171;-35
2022/09/26 07:20:56;;;;;;;;;;;;;;;26.89;32.46;100508.50;5018149;28;1191;-37
2022/09/26 07:23:22;;;;;;;;;;;;;;;27.27;31.97;100510.22;5011827;28;1961;-38
2022/09/26 07:25:47;;;;;;;;;;;;;;;27.24;32.03;100506.03;5003642;28;1191;-39
2022/09/26 07:28:13;;;;;;;;;;;;;;;27.26;31.41;100495.03;5017928;28;1182;-37
2022/09/26 07:30:38;;;;;;;;;;;;;;;27.51;32.03;100500.94;5017361;28;1107;-39
2022/09/26 07:33:03;;;;;;;;;;;;;;;27.30;31.85;100501.75;5017044;28;1190;-37
2022/09/26 07:35:30;;;;;;;;;;;;;;;26.98;32.10;100493.00;5017787;28;1195;-36
2022/09/26 07:37:56;;;;;;;;;;;;;;;26.88;32.38;100494.16;5017434;28;1235;-35
2022/09/26 07:40:21;;;;;;;;;;;;;;;26.86;32.64;100490.81;5005871;28;1301;-36
2022/09/26 07:42:47;;;;;;;;;;;;;;;26.90;32.65;100491.25;5002803;28;1970;-37
2022/09/26 07:45:12;;;;;;;;;;;;;;;26.88;32.30;100488.75;5004890;28;1948;-37
2022/09/26 07:50:21;;;;;;;;;;;;;;;27.54;31.79;100496.19;5011204;28;1207;-36
2022/09/26 07:52:46;;;;;;;;;;;;;;;27.53;31.37;100489.13;5015890;28;1108;-36
2022/09/26 07:55:12;;;;;;;;;;;;;;;27.47;31.31;100490.69;5016800;28;956;-36
2022/09/26 07:57:38;;;;;;;;;;;;;;;27.60;31.75;100488.13;5015884;28;1117;-36
2022/09/26 08:00:04;;;;;;;;;;;;;;;27.81;30.81;100488.38;5017107;28;1112;-35
2022/09/26 08:02:34;;;;;;;;;;;;;;;27.74;31.05;100478.31;5016465;28;1906;-37
2022/09/26 08:05:02;;;;;;;;;;;;;;;27.81;30.64;100477.56;5017391;28;1116;-39
2022/09/26 08:07:27;;;;;;;;;;;;;;;27.67;30.90;100463.88;5017234;28;1047;-38
2022/09/26 08:09:53;;;;;;;;;;;;;;;27.77;30.71;100463.59;5016509;28;1100;-38
2022/09/26 08:12:18;;;;;;;;;;;;;;;27.66;30.92;100461.38;5017182;28;1128;-37
2022/09/26 08:14:48;;;;;;;;;;;;;;;27.71;31.07;100457.06;5014116;28;1924;-37
2022/09/26 08:17:14;;;;;;;;;;;;;;;27.59;31.23;100447.81;5017049;28;1084;-39
2022/09/26 08:19:39;;;;;;;;;;;;;;;27.59;31.27;100450.50;5016900;28;990;-38
2022/09/26 08:22:06;;;;;;;;;;;;;;;27.56;30.93;100446.31;5016935;28;1116;-39
2022/09/26 08:24:31;;;;;;;;;;;;;;;27.51;31.02;100449.59;5016857;28;1963;-38
2022/09/26 08:26:57;;;;;;;;;;;;;;;27.63;30.80;100451.78;5016981;28;1151;-36
2022/09/26 08:29:22;;;;;;;;;;;;;;;27.58;31.22;100449.66;5016521;28;1119;-37
2022/09/26 08:31:48;;;;;;;;;;;;;;;27.62;30.98;100442.00;5016394;28;1120;-36
2022/09/26 08:34:13;;;;;;;;;;;;;;;27.60;30.97;100438.66;5016413;28;1080;-35
2022/09/26 08:36:40;;;;;;;;;;;;;;;27.82;30.63;100422.44;5016345;28;1219;-37
2022/09/26 08:39:05;;;;;;;;;;;;;;;27.65;31.07;100425.41;5016696;28;1135;-37
2022/09/26 08:41:43;;;;;;;;;;;;;;;27.86;30.83;100431.84;5016234;28;1144;-37
2022/09/26 08:44:24;;;;;;;;;;;;;;;27.60;30.85;100433.25;5016354;28;1981;-38
2022/09/26 08:47:04;;;;;;;;;;;;;;;27.50;31.30;100430.88;5009948;28;1104;-36
2022/09/26 08:49:30;;;;;;;;;;;;;;;27.54;31.14;100425.94;5004649;28;1085;-37
2022/09/26 08:51:56;;;;;;;;;;;;;;;27.50;31.27;100426.31;5016403;28;1112;-37
2022/09/26 08:54:30;;;;;;;;;;;;;;;27.52;31.42;100415.31;5016249;28;1131;-37
2022/09/26 08:56:57;;;;;;;;;;;;;;;27.66;30.92;100415.44;5016293;28;1116;-36
2022/09/26 08:59:22;;;;;;;;;;;;;;;28.06;30.61;100417.66;5015050;28;1016;-37
2022/09/26 09:01:48;;;;;;;;;;;;;;;28.22;30.42;100430.00;5016333;28;1194;-39
2022/09/26 09:04:14;;;;;;;;;;;;;;;28.30;30.35;100419.03;5015776;28;1906;-40
2022/09/26 09:06:40;;;;;;;;;;;;;;;28.50;30.40;100412.06;5015731;28;1148;-38
2022/09/26 09:09:05;;;;;;;;;;;;;;;28.13;28.40;100413.09;5015821;28;1119;-36
2022/09/26 09:11:39;;;;;;;;;;;;;;;28.31;29.25;100406.34;4997919;28;1167;-40
2022/09/26 09:14:05;;;;;;;;;;;;;;;28.51;30.86;100409.16;5012244;28;1129;-39
2022/09/26 09:16:33;;;;;;;;;;;;;;;28.59;30.52;100410.91;5014466;28;2592;-39
2022/09/26 09:19:01;;;;;;;;;;;;;;;28.62;32.67;100405.06;5015290;28;1138;-38
2022/09/26 09:21:36;;;;;;;;;;;;;;;28.58;34.41;100412.75;5014213;28;1097;-38
2022/09/26 09:24:18;;;;;;;;;;;;;;;28.48;34.21;100406.88;4997613;28;1906;-38
2022/09/26 09:26:49;;;;;;;;;;;;;;;28.34;34.02;100404.09;5015787;28;1108;-38
2022/09/26 09:29:33;;;;;;;;;;;;;;;28.34;34.15;100400.56;5016006;28;1268;-38
2022/09/26 09:31:59;;;;;;;;;;;;;;;28.48;33.97;100398.75;5015073;28;938;-37
2022/09/26 09:34:25;;;;;;;;;;;;;;;28.54;33.63;100391.72;5002352;28;1085;-37
2022/09/26 09:36:52;;;;;;;;;;;;;;;28.60;33.13;100390.91;5002529;28;1160;-37
2022/09/26 09:39:31;;;;;;;;;;;;;;;29.04;31.69;100377.13;5005249;28;1117;-37
2022/09/26 09:41:58;;;;;;;;;;;;;;;29.00;29.67;100381.25;5014690;28;1202;-37
2022/09/26 09:44:23;;;;;;;;;;;;;;;29.18;27.80;100375.25;5015692;28;1973;-37
2022/09/26 09:46:50;;;;;;;;;;;;;;;29.32;27.42;100373.41;5015565;28;1079;-39
2022/09/26 09:49:19;;;;;;;;;;;;;;;29.08;27.78;100364.81;5015698;28;1123;-40
2022/09/26 09:51:53;;;;;;;;;;;;;;;28.82;27.86;100356.44;5015890;28;1112;-39
2022/09/26 09:54:28;;;;;;;;;;;;;;;28.57;28.22;100345.31;5015393;28;1143;-39
2022/09/26 09:57:05;;;;;;;;;;;;;;;28.83;27.54;100347.25;5015432;28;997;-40
2022/09/26 09:59:31;;;;;;;;;;;;;;;28.57;28.03;100351.56;5014923;28;1061;-40
2022/09/26 10:02:09;;;;;;;;;;;;;;;28.79;27.38;100348.72;5015165;28;1147;-42
2022/09/26 10:04:42;;;;;;;;;;;;;;;28.71;27.77;100346.19;5014205;28;1918;-40
2022/09/26 10:07:08;;;;;;;;;;;;;;;28.69;27.70;100343.69;5012930;28;1336;-41
2022/09/26 10:09:45;;;;;;;;;;;;;;;28.89;27.02;100348.31;5002482;28;1204;-38
2022/09/26 10:12:15;;;;;;;;;;;;;;;29.07;26.84;100347.75;5016007;28;1097;-40
2022/09/26 10:14:51;;;;;;;;;;;;;;;29.25;26.50;100346.31;5015833;28;1821;-43
2022/09/26 10:17:19;;;;;;;;;;;;;;;28.88;27.29;100340.41;5019268;28;1209;-38
2022/09/26 10:19:44;;;;;;;;;;;;;;;28.82;27.22;100344.75;5011876;28;1119;-42
2022/09/26 10:22:29;;;;;;;;;;;;;;;29.39;26.25;100336.31;5004670;28;1295;-41
2022/09/26 10:25:03;;;;;;;;;;;;;;;29.60;25.89;100325.47;5019246;28;1093;-40
2022/09/26 10:27:36;;;;;;;;;;;;;;;29.63;26.08;100330.50;5005688;28;1088;-37
2022/09/26 10:30:05;;;;;;;;;;;;;;;29.39;26.41;100322.78;5019460;28;1115;-37
2022/09/26 10:32:30;;;;;;;;;;;;;;;29.60;26.27;100314.63;5018648;28;1239;-39
2022/09/26 10:35:03;;;;;;;;;;;;;;;29.73;25.63;100316.50;5017799;28;1081;-39
2022/09/26 10:37:28;;;;;;;;;;;;;;;29.64;25.57;100305.91;5017929;28;994;-40
2022/09/26 10:42:38;;;;;;;;;;;;;;;30.08;25.13;100297.19;5018625;28;1906;-38
2022/09/26 10:45:10;;;;;;;;;;;;;;;30.08;25.07;100305.34;5018458;28;1809;-38
2022/09/26 10:47:36;;;;;;;;;;;;;;;30.09;24.65;100311.59;5018699;28;1107;-38
2022/09/26 10:50:02;;;;;;;;;;;;;;;29.99;25.25;100302.06;5017719;28;1120;-38
2022/09/26 10:52:38;;;;;;;;;;;;;;;29.98;25.57;100297.66;5017419;28;1101;-39
2022/09/26 10:55:24;;;;;;;;;;;;;;;30.31;24.70;100296.72;5017224;28;1124;-38
2022/09/26 10:57:53;;;;;;;;;;;;;;;30.51;25.79;100301.22;5018764;28;1100;-37
2022/09/26 11:00:44;;;;;;;;;;;;;;;29.84;25.80;100306.88;5018269;28;1100;-42
2022/09/26 11:03:13;;;;;;;;;;;;;;;29.41;26.36;100299.00;5014276;28;1899;-40
2022/09/26 11:05:57;;;;;;;;;;;;;;;29.81;26.06;100305.44;5018377;28;1135;-38
2022/09/26 11:08:28;;;;;;;;;;;;;;;29.52;26.61;100302.94;5017979;28;1104;-36
2022/09/26 11:10:54;;;;;;;;;;;;;;;29.56;26.45;100296.06;5018213;28;1132;-38
2022/09/26 11:13:27;;;;;;;;;;;;;;;29.55;26.54;100288.97;5017036;28;1188;-40
2022/09/26 11:16:02;;;;;;;;;;;;;;;29.73;26.48;100298.34;5018232;28;2060;-36
2022/09/26 11:18:41;;;;;;;;;;;;;;;29.95;26.51;100298.09;5018163;28;1116;-39
2022/09/26 11:21:27;;;;;;;;;;;;;;;30.06;26.37;100293.91;5004873;28;885;-38
2022/09/26 11:24:14;;;;;;;;;;;;;;;30.05;26.30;100292.22;4987166;28;1965;-37
2022/09/26 11:26:39;;;;;;;;;;;;;;;29.70;26.83;100286.06;5003240;28;1092;-37
2022/09/26 11:29:13;;;;;;;;;;;;;;;29.56;26.99;100278.97;5008080;28;1192;-39
2022/09/26 11:31:42;;;;;;;;;;;;;;;29.81;26.59;100268.31;5000006;28;1271;-38
2022/09/26 11:34:16;;;;;;;;;;;;;;;29.72;26.79;100260.63;5017467;28;1215;-39
2022/09/26 11:36:48;;;;;;;;;;;;;;;29.72;26.81;100257.91;5016136;28;1377;-39
2022/09/26 11:39:25;;;;;;;;;;;;;;;29.93;26.23;100252.22;5017167;28;1231;-36
2022/09/26 11:41:54;;;;;;;;;;;;;;;29.75;26.61;100252.06;5017486;28;1042;-36
2022/09/26 11:44:34;;;;;;;;;;;;;;;29.64;26.93;100251.69;5017269;28;1965;-37
2022/09/26 11:46:59;;;;;;;;;;;;;;;29.71;26.77;100257.09;5007740;28;1093;-37
2022/09/26 11:49:25;;;;;;;;;;;;;;;29.78;26.50;100255.16;5017416;28;1128;-37
2022/09/26 11:51:57;;;;;;;;;;;;;;;29.82;26.48;100251.00;5017053;28;1124;-37
2022/09/26 11:54:31;;;;;;;;;;;;;;;29.98;26.48;100246.13;5016312;28;1149;-37
2022/09/26 11:57:09;;;;;;;;;;;;;;;30.13;26.12;100250.47;5002554;28;1049;-36
2022/09/26 11:59:53;;;;;;;;;;;;;;;29.57;26.76;100259.81;5016407;28;1124;-42
2022/09/26 12:02:33;;;;;;;;;;;;;;;29.69;26.47;100261.88;5017043;28;1894;-39
2022/09/26 12:05:18;;;;;;;;;;;;;;;29.96;26.09;100250.13;5017140;28;855;-40
2022/09/26 12:08:03;;;;;;;;;;;;;;;29.87;26.47;100252.22;5016713;28;1171;-40
2022/09/26 12:10:31;;;;;;;;;;;;;;;29.87;26.56;100246.81;5017197;28;1195;-39
2022/09/26 12:13:03;;;;;;;;;;;;;;;29.69;26.72;100243.75;5013945;28;1160;-38
2022/09/26 12:15:31;;;;;;;;;;;;;;;30.03;26.23;100249.03;5009230;28;1815;-38
2022/09/26 12:18:12;;;;;;;;;;;;;;;30.02;26.15;100249.25;4996061;28;1149;-38
2022/09/26 12:21:00;;;;;;;;;;;;;;;29.70;26.81;100247.28;5013363;28;1179;-39
2022/09/26 12:23:44;;;;;;;;;;;;;;;29.65;26.99;100237.06;4969290;28;1898;-39
2022/09/26 12:26:09;;;;;;;;;;;;;;;29.66;26.71;100222.47;5003431;28;1084;-39
2022/09/26 12:28:37;;;;;;;;;;;;;;;29.58;26.88;100231.63;5015833;28;1157;-39
2022/09/26 12:31:16;;;;;;;;;;;;;;;29.61;26.86;100216.03;5016178;28;1090;-39
2022/09/26 12:33:45;;;;;;;;;;;;;;;29.62;26.76;100223.97;5002871;28;1080;-42
2022/09/26 12:36:17;;;;;;;;;;;;;;;29.61;26.83;100216.03;5004769;28;1255;-39
2022/09/26 12:38:48;;;;;;;;;;;;;;;29.52;26.84;100210.81;5013927;28;1159;-39
2022/09/26 12:41:23;;;;;;;;;;;;;;;29.59;26.78;100208.13;5016082;28;1147;-40
2022/09/26 12:44:03;;;;;;;;;;;;;;;29.43;26.92;100204.78;5014502;28;1906;-40
2022/09/26 12:46:47;;;;;;;;;;;;;;;29.39;26.99;100208.13;5009738;28;2097;-40
2022/09/26 12:49:46;;;;;;;;;;;;;;;29.43;26.91;100207.50;5010651;28;1148;-40
2022/09/26 12:52:14;;;;;;;;;;;;;;;29.67;26.40;100199.75;4995824;28;1160;-40
2022/09/26 12:54:58;;;;;;;;;;;;;;;29.77;26.24;100201.16;5014425;28;1183;-42
2022/09/26 12:57:37;;;;;;;;;;;;;;;29.66;26.46;100202.69;5014942;28;1176;-40
2022/09/26 13:00:15;;;;;;;;;;;;;;;29.80;26.25;100198.03;5003096;28;1143;-40
2022/09/26 13:02:49;;;;;;;;;;;;;;;29.68;26.29;100196.00;5016625;28;1969;-40
2022/09/26 13:05:36;;;;;;;;;;;;;;;29.65;26.41;100201.00;5016204;28;1187;-39
2022/09/26 13:08:05;;;;;;;;;;;;;;;29.45;26.42;100204.56;5001119;28;1120;-39
2022/09/26 13:10:49;;;;;;;;;;;;;;;29.56;26.53;100197.69;5001930;28;1033;-40